createdAt,value
2022-11-16T00:13:08.695Z,32
2022-11-16T00:42:19.131Z,31
2022-11-16T01:11:29.035Z,35
2022-11-16T01:40:40.653Z,36
2022-11-16T02:09:48.664Z,27
2022-11-16T02:39:00.110Z,23
2022-11-16T03:08:09.678Z,21
2022-11-16T03:37:15.252Z,27
2022-11-16T04:06:21.609Z,27
2022-11-16T04:35:31.599Z,19
2022-11-16T05:04:37.624Z,13
2022-11-16T05:33:44.981Z,13
2022-11-16T06:02:54.656Z,13
2022-11-16T06:31:54.539Z,8
2022-11-16T07:00:47.906Z,13
2022-11-16T07:29:32.604Z,6
2022-11-16T07:58:43.731Z,7
2022-11-16T08:27:41.390Z,7
2022-11-16T08:56:52.218Z,6
2022-11-16T09:25:54.173Z,5
2022-11-16T09:55:04.347Z,4
2022-11-16T10:24:08.720Z,5
2022-11-16T10:53:12.779Z,4
2022-11-16T11:22:21.995Z,4
2022-11-16T11:51:26.707Z,4
2022-11-16T12:20:37.903Z,3
2022-11-16T12:49:38.372Z,4
2022-11-16T13:18:46.140Z,5
2022-11-16T13:47:46.587Z,5
2022-11-16T14:16:51.185Z,4
2022-11-16T14:45:54.280Z,4
2022-11-16T15:14:52.617Z,6
2022-11-16T15:44:12.925Z,8
2022-11-16T16:12:20.343Z,8
2022-11-16T16:41:24.422Z,8
2022-11-16T17:09:49.412Z,9
2022-11-16T17:38:47.659Z,8
2022-11-16T18:07:46.302Z,7
2022-11-16T18:36:49.424Z,10
2022-11-16T19:05:51.245Z,8
2022-11-16T19:34:52.368Z,8
2022-11-16T20:03:53.273Z,13
2022-11-16T20:32:55.411Z,10
2022-11-16T21:01:59.048Z,8
2022-11-16T21:30:57.700Z,10
2022-11-16T22:00:01.003Z,8
2022-11-16T22:29:05.224Z,7
2022-11-16T22:58:09.151Z,5
2022-11-16T23:27:15.738Z,6
2022-11-16T23:56:25.116Z,6
